createdAt,value
2022-10-19T00:01:06.823Z,98737.56
2022-10-19T00:03:34.874Z,98746.25
2022-10-19T00:06:14.013Z,98747.06
2022-10-19T00:08:41.093Z,98746.94
2022-10-19T00:11:07.766Z,98751.50
2022-10-19T00:13:34.915Z,98736.84
2022-10-19T00:16:02.446Z,98731.69
2022-10-19T00:18:28.921Z,98731.59
2022-10-19T00:21:06.891Z,98732.38
2022-10-19T00:23:33.934Z,98726.09
2022-10-19T00:26:00.913Z,98715.56
2022-10-19T00:28:27.857Z,98705.97
2022-10-19T00:30:54.929Z,98705.28
2022-10-19T00:33:21.820Z,98702.41
2022-10-19T00:35:50.404Z,98696.88
2022-10-19T00:38:18.532Z,98701.47
2022-10-19T00:40:45.564Z,98677.09
2022-10-19T00:43:21.530Z,98662.66
2022-10-19T00:45:48.375Z,98661.53
2022-10-19T00:48:22.065Z,98659.34
2022-10-19T00:50:51.189Z,98648.38
2022-10-19T00:53:17.693Z,98654.44
2022-10-19T00:55:44.757Z,98673.66
2022-10-19T00:58:11.455Z,98656.84
2022-10-19T01:00:38.232Z,98634.50
2022-10-19T01:03:05.830Z,98624.31
2022-10-19T01:05:34.601Z,98641.50
2022-10-19T01:08:01.629Z,98657.50
2022-10-19T01:10:43.214Z,98655.44
2022-10-19T01:13:30.006Z,98678.31
2022-10-19T01:16:07.858Z,98680.41
2022-10-19T01:18:44.395Z,98672.06
2022-10-19T01:21:25.099Z,98668.03
2022-10-19T01:24:25.335Z,98665.75
2022-10-19T01:27:16.971Z,98654.09
2022-10-19T01:30:07.293Z,98645.47
2022-10-19T01:33:07.702Z,98616.31
2022-10-19T01:35:53.288Z,98600.28
2022-10-19T01:38:28.363Z,98599.25
2022-10-19T01:41:07.346Z,98581.41
2022-10-19T01:43:59.556Z,98570.84
2022-10-19T01:46:39.239Z,98571.06
2022-10-19T01:49:16.061Z,98566.03
2022-10-19T01:51:49.443Z,98563.44
2022-10-19T01:54:19.216Z,98561.00
2022-10-19T01:56:48.429Z,98546.81
2022-10-19T01:59:18.173Z,98554.84
2022-10-19T02:01:47.265Z,98572.53
2022-10-19T02:04:18.919Z,98578.59
2022-10-19T02:06:45.940Z,98584.78
2022-10-19T02:09:12.482Z,98594.25
2022-10-19T02:11:39.072Z,98589.59
2022-10-19T02:14:11.411Z,98591.72
2022-10-19T02:16:55.075Z,98585.00
2022-10-19T02:21:54.036Z,98571.41
2022-10-19T02:24:20.599Z,98562.50
2022-10-19T02:26:47.180Z,98558.38
2022-10-19T02:29:15.399Z,98553.94
2022-10-19T02:31:43.018Z,98550.06
2022-10-19T02:34:10.326Z,98548.44
2022-10-19T02:36:37.168Z,98541.94
2022-10-19T02:39:04.349Z,98544.34
2022-10-19T02:41:39.642Z,98536.31
2022-10-19T02:44:14.973Z,98538.72
2022-10-19T02:46:44.978Z,98538.06
2022-10-19T02:49:13.216Z,98529.72
2022-10-19T02:52:05.257Z,98532.13
2022-10-19T02:54:32.104Z,98530.50
2022-10-19T02:56:58.795Z,98521.81
2022-10-19T02:59:26.111Z,98511.06
2022-10-19T03:01:52.750Z,98515.88
2022-10-19T03:04:19.278Z,98515.66
2022-10-19T03:06:46.216Z,98508.00
2022-10-19T03:09:12.717Z,98508.78
2022-10-19T03:11:39.182Z,98511.44
2022-10-19T03:14:05.753Z,98511.44
2022-10-19T03:16:32.223Z,98516.69
2022-10-19T03:18:58.675Z,98509.81
2022-10-19T03:21:25.294Z,98505.38
2022-10-19T03:23:51.754Z,98496.66
2022-10-19T03:26:18.519Z,98487.63
2022-10-19T03:28:45.099Z,98479.97
2022-10-19T03:31:11.761Z,98475.19
2022-10-19T03:33:38.465Z,98474.38
2022-10-19T03:36:20.589Z,98458.59
2022-10-19T03:38:49.352Z,98451.50
2022-10-19T03:41:15.821Z,98442.25
2022-10-19T03:43:42.535Z,98440.75
2022-10-19T03:46:09.328Z,98445.69
2022-10-19T03:48:36.215Z,98455.41
2022-10-19T03:51:06.877Z,98456.53
2022-10-19T03:53:33.966Z,98452.31
2022-10-19T03:56:04.853Z,98458.38
2022-10-19T03:58:33.704Z,98456.75
2022-10-19T04:01:00.658Z,98452.31
2022-10-19T04:03:27.421Z,98455.16
2022-10-19T04:06:02.227Z,98456.75
2022-10-19T04:08:28.687Z,98455.97
2022-10-19T04:10:59.790Z,98463.63
2022-10-19T04:13:26.301Z,98456.75
2022-10-19T04:15:52.752Z,98449.56
2022-10-19T04:18:19.224Z,98447.63
2022-10-19T04:20:45.745Z,98443.28
2022-10-19T04:23:12.249Z,98439.41
2022-10-19T04:25:38.861Z,98417.88
2022-10-19T04:28:05.530Z,98419.69
2022-10-19T04:30:31.979Z,98419.94
2022-10-19T04:32:58.532Z,98411.25
2022-10-19T04:35:25.376Z,98414.91
2022-10-19T04:37:51.852Z,98416.81
2022-10-19T04:40:18.298Z,98412.59
2022-10-19T04:42:44.824Z,98404.72
2022-10-19T04:45:11.313Z,98404.69
2022-10-19T04:47:37.797Z,98401.94
2022-10-19T04:50:04.696Z,98397.47
2022-10-19T04:52:31.169Z,98391.69
2022-10-19T04:54:57.649Z,98388.47
2022-10-19T04:57:24.211Z,98390.22
2022-10-19T04:59:50.673Z,98388.16
2022-10-19T05:02:17.156Z,98384.06
2022-10-19T05:04:45.187Z,98379.41
2022-10-19T05:07:11.773Z,98379.19
2022-10-19T05:09:38.258Z,98382.59
2022-10-19T05:12:04.968Z,98374.47
2022-10-19T05:14:35.022Z,98369.22
2022-10-19T05:17:03.251Z,98369.09
2022-10-19T05:19:29.758Z,98363.44
2022-10-19T05:21:56.257Z,98363.91
2022-10-19T05:24:22.792Z,98361.28
2022-10-19T05:26:49.525Z,98359.41
2022-10-19T05:29:16.004Z,98359.50
2022-10-19T05:31:42.606Z,98368.09
2022-10-19T05:34:10.058Z,98366.47
2022-10-19T05:36:40.203Z,98362.03
2022-10-19T05:39:11.895Z,98368.75
2022-10-19T05:41:38.441Z,98358.41
2022-10-19T05:44:05.502Z,98363.41
2022-10-19T05:46:33.141Z,98360.22
2022-10-19T05:49:00.093Z,98357.88
2022-10-19T05:51:27.974Z,98356.63
2022-10-19T05:53:55.769Z,98348.66
2022-10-19T05:56:27.316Z,98345.25
2022-10-19T05:58:56.145Z,98341.81
2022-10-19T06:01:22.963Z,98336.13
2022-10-19T06:03:54.792Z,98332.34
2022-10-19T06:06:22.709Z,98322.66
2022-10-19T06:08:50.163Z,98330.44
2022-10-19T06:11:19.903Z,98330.28
2022-10-19T06:13:47.737Z,98333.06
2022-10-19T06:16:16.266Z,98324.16
2022-10-19T06:18:42.955Z,98330.09
2022-10-19T06:21:15.152Z,98332.97
2022-10-19T06:26:14.660Z,98332.41
2022-10-19T06:28:43.744Z,98327.75
2022-10-19T06:31:10.761Z,98329.34
2022-10-19T06:33:39.748Z,98328.81
2022-10-19T06:36:15.761Z,98325.13
2022-10-19T06:38:43.312Z,98312.06
2022-10-19T06:41:11.219Z,98320.06
2022-10-19T06:43:38.094Z,98318.00
2022-10-19T06:46:10.962Z,98311.25
2022-10-19T06:48:38.458Z,98315.25
2022-10-19T06:51:06.644Z,98311.94
2022-10-19T06:53:34.433Z,98326.53
2022-10-19T06:56:02.998Z,98332.25
2022-10-19T06:58:29.836Z,98329.53
2022-10-19T07:01:00.648Z,98322.34
2022-10-19T07:03:28.756Z,98328.72
2022-10-19T07:05:56.927Z,98316.50
2022-10-19T07:08:24.216Z,98313.84
2022-10-19T07:10:56.086Z,98313.63
2022-10-19T07:13:22.909Z,98311.34
2022-10-19T07:15:49.545Z,98322.97
2022-10-19T07:18:16.140Z,98320.34
2022-10-19T07:20:42.607Z,98314.63
2022-10-19T07:23:09.075Z,98312.75
2022-10-19T07:25:36.339Z,98307.44
2022-10-19T07:28:02.888Z,98299.41
2022-10-19T07:30:29.392Z,98289.56
2022-10-19T07:32:55.907Z,98289.91
2022-10-19T07:35:22.389Z,98289.56
2022-10-19T07:37:48.834Z,98280.53
2022-10-19T07:40:15.394Z,98282.84
2022-10-19T07:42:41.853Z,98294.63
2022-10-19T07:45:08.608Z,98297.94
2022-10-19T07:47:35.468Z,98291.31
2022-10-19T07:50:02.127Z,98292.59
2022-10-19T07:52:30.760Z,98292.94
2022-10-19T07:54:59.656Z,98299.81
2022-10-19T07:57:26.915Z,98301.63
2022-10-19T07:59:53.380Z,98297.25
2022-10-19T08:02:19.958Z,98297.41
2022-10-19T08:05:00.700Z,98310.59
2022-10-19T08:07:29.628Z,98301.88
2022-10-19T08:09:56.281Z,98303.00
2022-10-19T08:12:22.845Z,98303.88
2022-10-19T08:14:49.415Z,98309.94
2022-10-19T08:17:15.909Z,98307.47
2022-10-19T08:19:42.362Z,98310.81
2022-10-19T08:22:09.366Z,98307.72
2022-10-19T08:24:35.843Z,98307.13
2022-10-19T08:27:02.307Z,98308.97
2022-10-19T08:29:30.705Z,98300.38
2022-10-19T08:31:59.470Z,98306.19
2022-10-19T08:34:26.172Z,98310.44
2022-10-19T08:36:52.742Z,98311.88
2022-10-19T08:39:19.291Z,98306.63
2022-10-19T08:42:01.164Z,98302.81
2022-10-19T08:45:04.852Z,98297.41
2022-10-19T08:47:40.396Z,98293.75
2022-10-19T08:50:23.646Z,98292.94
2022-10-19T08:53:01.877Z,98301.78
2022-10-19T08:55:39.687Z,98306.94
2022-10-19T08:58:43.640Z,98299.94
2022-10-19T09:01:10.052Z,98299.63
2022-10-19T09:04:07.399Z,98287.50
2022-10-19T09:07:01.548Z,98287.50
2022-10-19T09:09:31.731Z,98287.00
2022-10-19T09:12:06.796Z,98285.59
2022-10-19T09:14:44.002Z,98280.47
2022-10-19T09:17:14.046Z,98274.25
2022-10-19T09:19:40.535Z,98279.66
2022-10-19T09:22:21.087Z,98276.06
2022-10-19T09:24:51.901Z,98264.59
2022-10-19T09:27:26.911Z,98271.28
2022-10-19T09:29:58.522Z,98269.06
2022-10-19T09:32:35.831Z,98263.78
2022-10-19T09:35:18.231Z,98263.72
2022-10-19T09:37:51.172Z,98256.72
2022-10-19T09:40:23.080Z,98264.59
2022-10-19T09:42:49.860Z,98264.25
2022-10-19T09:45:36.266Z,98252.28
2022-10-19T09:48:12.783Z,98247.22
2022-10-19T09:50:43.955Z,98254.13
2022-10-19T09:53:19.230Z,98259.59
2022-10-19T09:55:57.635Z,98252.91
2022-10-19T09:58:29.174Z,98254.59
2022-10-19T10:00:59.211Z,98259.34
2022-10-19T10:03:30.599Z,98265.06
2022-10-19T10:06:07.534Z,98271.06
2022-10-19T10:08:39.148Z,98264.59
2022-10-19T10:11:13.100Z,98273.44
2022-10-19T10:13:42.828Z,98265.09
2022-10-19T10:16:14.256Z,98259.50
2022-10-19T10:18:59.616Z,98260.59
2022-10-19T10:21:31.705Z,98248.38
2022-10-19T10:24:17.606Z,98249.47
2022-10-19T10:26:50.412Z,98240.13
2022-10-19T10:29:20.397Z,98237.28
2022-10-19T10:31:56.094Z,98237.28
2022-10-19T10:34:38.784Z,98244.50
2022-10-19T10:37:43.821Z,98249.34
2022-10-19T10:40:26.623Z,98237.91
2022-10-19T10:42:56.463Z,98244.13
2022-10-19T10:45:45.881Z,98251.13
2022-10-19T10:48:17.378Z,98247.41
2022-10-19T10:50:44.736Z,98240.91
2022-10-19T10:53:36.320Z,98241.59
2022-10-19T10:56:05.391Z,98230.84
2022-10-19T10:58:41.547Z,98235.63
2022-10-19T11:01:18.738Z,98235.06
2022-10-19T11:03:52.875Z,98224.78
2022-10-19T11:09:10.367Z,98231.81
2022-10-19T11:11:42.688Z,98230.44
2022-10-19T11:14:43.928Z,98223.00
2022-10-19T11:17:39.213Z,98224.22
2022-10-19T11:20:07.549Z,98216.84
2022-10-19T11:23:02.156Z,98219.84
2022-10-19T11:25:57.969Z,98214.38
2022-10-19T11:28:33.320Z,98216.06
2022-10-19T11:31:06.950Z,98211.31
2022-10-19T11:33:39.399Z,98210.41
2022-10-19T11:36:47.687Z,98215.84
2022-10-19T11:39:43.539Z,98204.06
2022-10-19T11:42:34.556Z,98211.09
2022-10-19T11:45:31.690Z,98214.34
2022-10-19T11:48:39.304Z,98222.66
2022-10-19T11:51:21.472Z,98217.50
2022-10-19T11:53:57.494Z,98222.94
2022-10-19T11:56:39.217Z,98214.19
2022-10-19T11:59:28.512Z,98219.81
2022-10-19T12:02:31.280Z,98220.53
2022-10-19T12:05:03.395Z,98222.41
2022-10-19T12:08:00.261Z,98229.72
2022-10-19T12:10:32.797Z,98221.44
2022-10-19T12:13:04.502Z,98226.41
2022-10-19T12:15:38.147Z,98230.50
2022-10-19T12:18:33.942Z,98229.34
2022-10-19T12:21:04.504Z,98231.84
2022-10-19T12:23:44.033Z,98222.22
2022-10-19T12:26:15.735Z,98218.00
2022-10-19T12:28:48.965Z,98218.25
2022-10-19T12:31:17.057Z,98223.38
2022-10-19T12:34:05.023Z,98224.59
2022-10-19T12:36:54.222Z,98229.91
2022-10-19T12:39:30.732Z,98234.09
2022-10-19T12:42:24.868Z,98239.31
2022-10-19T12:45:23.481Z,98243.84
2022-10-19T12:48:08.354Z,98238.19
2022-10-19T12:50:50.195Z,98245.53
2022-10-19T12:56:02.364Z,98243.56
2022-10-19T12:58:35.155Z,98242.38
2022-10-19T13:01:04.582Z,98249.41
2022-10-19T13:03:39.991Z,98252.00
2022-10-19T13:06:19.403Z,98253.59
2022-10-19T13:08:57.491Z,98247.09
2022-10-19T13:11:24.094Z,98240.00
2022-10-19T13:13:58.321Z,98250.53
2022-10-19T13:16:37.053Z,98252.97
2022-10-19T13:19:12.847Z,98247.78
2022-10-19T13:22:00.974Z,98252.16
2022-10-19T13:24:34.149Z,98251.06
2022-10-19T13:27:03.583Z,98254.66
2022-10-19T13:29:39.510Z,98257.84
2022-10-19T13:32:35.098Z,98262.69
2022-10-19T13:35:23.834Z,98260.16
2022-10-19T13:38:24.541Z,98260.56
2022-10-19T13:40:51.070Z,98262.34
2022-10-19T13:43:20.235Z,98255.91
2022-10-19T13:46:10.613Z,98265.59
2022-10-19T13:49:00.670Z,98273.72
2022-10-19T13:51:42.083Z,98279.09
2022-10-19T13:54:17.620Z,98268.25
2022-10-19T13:56:47.799Z,98270.28
2022-10-19T14:00:00.109Z,98278.75
2022-10-19T14:02:59.632Z,98277.84
2022-10-19T14:05:29.241Z,98283.78
2022-10-19T14:08:33.952Z,98283.22
2022-10-19T14:11:11.700Z,98282.53
2022-10-19T14:13:38.232Z,98284.47
2022-10-19T14:16:05.070Z,98284.00
2022-10-19T14:18:34.506Z,98286.03
2022-10-19T14:21:09.403Z,98282.88
2022-10-19T14:23:40.008Z,98279.22
2022-10-19T14:26:16.733Z,98284.78
2022-10-19T14:28:43.679Z,98280.69
2022-10-19T14:31:19.737Z,98280.44
2022-10-19T14:33:50.195Z,98282.63
2022-10-19T14:36:20.986Z,98286.28
2022-10-19T14:38:50.255Z,98286.50
2022-10-19T14:41:28.889Z,98285.72
2022-10-19T14:43:59.905Z,98283.09
2022-10-19T14:46:31.563Z,98288.34
2022-10-19T14:49:03.487Z,98289.72
2022-10-19T14:51:44.167Z,98292.66
2022-10-19T14:54:40.180Z,98292.09
2022-10-19T14:57:29.027Z,98293.13
2022-10-19T15:00:03.062Z,98300.78
2022-10-19T15:02:35.714Z,98299.75
2022-10-19T15:05:05.348Z,98298.94
2022-10-19T15:07:43.036Z,98298.72
2022-10-19T15:10:26.091Z,98301.91
2022-10-19T15:13:04.463Z,98302.03
2022-10-19T15:15:33.926Z,98307.63
2022-10-19T15:18:00.478Z,98310.50
2022-10-19T15:20:44.039Z,98316.09
2022-10-19T15:23:39.684Z,98312.09
2022-10-19T15:26:20.655Z,98316.53
2022-10-19T15:28:48.492Z,98319.84
2022-10-19T15:31:26.771Z,98314.25
2022-10-19T15:33:55.901Z,98316.66
2022-10-19T15:36:24.206Z,98324.75
2022-10-19T15:39:18.214Z,98317.91
2022-10-19T15:41:50.711Z,98320.53
2022-10-19T15:44:40.504Z,98317.44
2022-10-19T15:47:20.540Z,98320.31
2022-10-19T15:49:56.367Z,98314.72
2022-10-19T15:52:27.743Z,98324.41
2022-10-19T15:54:56.506Z,98328.41
2022-10-19T15:57:27.871Z,98321.91
2022-10-19T15:59:56.288Z,98320.31
2022-10-19T16:02:23.132Z,98321.78
2022-10-19T16:04:49.708Z,98325.00
2022-10-19T16:07:22.076Z,98319.75
2022-10-19T16:09:48.545Z,98327.84
2022-10-19T16:12:15.096Z,98324.19
2022-10-19T16:14:41.573Z,98323.53
2022-10-19T16:17:11.242Z,98312.78
2022-10-19T16:19:37.810Z,98323.06
2022-10-19T16:22:04.492Z,98312.09
2022-10-19T16:24:30.959Z,98324.41
2022-10-19T16:26:57.564Z,98329.22
2022-10-19T16:29:28.160Z,98323.28
2022-10-19T16:31:55.724Z,98330.25
2022-10-19T16:34:22.464Z,98327.41
2022-10-19T16:36:49.068Z,98336.06
2022-10-19T16:39:15.551Z,98332.66
2022-10-19T16:41:44.108Z,98329.00
2022-10-19T16:44:12.094Z,98332.41
2022-10-19T16:46:39.055Z,98339.84
2022-10-19T16:49:05.707Z,98340.19
2022-10-19T16:51:42.094Z,98345.09
2022-10-19T16:54:10.871Z,98337.44
2022-10-19T16:56:42.083Z,98329.22
2022-10-19T16:59:11.228Z,98326.16
2022-10-19T17:01:37.922Z,98338.94
2022-10-19T17:04:04.461Z,98337.78
2022-10-19T17:06:30.984Z,98346.00
2022-10-19T17:11:44.839Z,98350.13
2022-10-19T17:14:12.720Z,98353.53
2022-10-19T17:16:40.019Z,98358.16
2022-10-19T17:19:08.380Z,98355.53
2022-10-19T17:21:36.921Z,98356.22
2022-10-19T17:24:04.637Z,98358.13
2022-10-19T17:26:40.321Z,98366.06
2022-10-19T17:29:07.461Z,98369.34
2022-10-19T17:31:34.673Z,98361.78
2022-10-19T17:34:01.821Z,98364.84
2022-10-19T17:36:30.847Z,98362.66
2022-10-19T17:39:00.316Z,98363.69
2022-10-19T17:41:27.425Z,98374.88
2022-10-19T17:43:54.602Z,98373.34
2022-10-19T17:46:26.626Z,98368.78
2022-10-19T17:48:53.135Z,98367.38
2022-10-19T17:51:22.303Z,98372.03
2022-10-19T17:53:49.111Z,98370.81
2022-10-19T17:56:18.192Z,98377.66
2022-10-19T17:58:45.272Z,98373.06
2022-10-19T18:01:12.257Z,98371.81
2022-10-19T18:03:39.571Z,98360.06
2022-10-19T18:06:09.641Z,98366.91
2022-10-19T18:08:40.850Z,98369.16
2022-10-19T18:11:10.213Z,98361.50
2022-10-19T18:16:11.973Z,98362.66
2022-10-19T18:18:40.316Z,98364.38
2022-10-19T18:21:13.892Z,98357.91
2022-10-19T18:23:41.155Z,98360.13
2022-10-19T18:26:10.311Z,98368.44
2022-10-19T18:28:36.984Z,98368.28
2022-10-19T18:31:18.498Z,98367.63
2022-10-19T18:33:46.205Z,98372.94
2022-10-19T18:36:12.724Z,98375.69
2022-10-19T18:38:39.595Z,98372.50
2022-10-19T18:41:11.348Z,98370.03
2022-10-19T18:43:39.730Z,98376.44
2022-10-19T18:46:07.591Z,98382.47
2022-10-19T18:48:36.919Z,98382.19
2022-10-19T18:51:07.721Z,98386.97
2022-10-19T18:53:35.081Z,98387.91
2022-10-19T18:56:07.873Z,98386.81
2022-10-19T18:58:35.260Z,98398.16
2022-10-19T19:01:05.483Z,98392.00
2022-10-19T19:03:32.608Z,98394.44
2022-10-19T19:06:04.118Z,98389.00
2022-10-19T19:08:31.542Z,98398.81
2022-10-19T19:11:09.627Z,98389.94
2022-10-19T19:13:36.093Z,98402.69
2022-10-19T19:16:02.548Z,98397.78
2022-10-19T19:18:29.150Z,98397.50
2022-10-19T19:20:55.627Z,98392.47
2022-10-19T19:23:22.106Z,98398.72
2022-10-19T19:25:48.611Z,98396.09
2022-10-19T19:28:15.330Z,98398.59
2022-10-19T19:30:43.410Z,98404.84
2022-10-19T19:33:10.049Z,98401.84
2022-10-19T19:35:45.974Z,98406.34
2022-10-19T19:38:13.883Z,98415.41
2022-10-19T19:40:46.078Z,98403.47
2022-10-19T19:43:15.034Z,98416.84
2022-10-19T19:45:42.930Z,98412.25
2022-10-19T19:48:10.681Z,98411.69
2022-10-19T19:50:38.190Z,98416.66
2022-10-19T19:53:05.078Z,98421.00
2022-10-19T19:55:38.109Z,98425.63
2022-10-19T19:58:05.768Z,98431.50
2022-10-19T20:00:32.515Z,98431.88
2022-10-19T20:02:59.256Z,98446.38
2022-10-19T20:05:26.890Z,98429.06
2022-10-19T20:07:53.344Z,98431.88
2022-10-19T20:10:19.880Z,98435.50
2022-10-19T20:12:47.273Z,98439.94
2022-10-19T20:15:16.050Z,98439.56
2022-10-19T20:17:42.829Z,98443.00
2022-10-19T20:20:11.363Z,98442.59
2022-10-19T20:22:39.020Z,98443.16
2022-10-19T20:25:06.420Z,98444.75
2022-10-19T20:27:36.485Z,98450.19
2022-10-19T20:30:04.176Z,98445.09
2022-10-19T20:32:31.200Z,98448.59
2022-10-19T20:34:57.925Z,98446.97
2022-10-19T20:37:24.528Z,98448.78
2022-10-19T20:39:51.027Z,98437.44
2022-10-19T20:42:19.098Z,98446.38
2022-10-19T20:44:45.563Z,98443.59
2022-10-19T20:47:12.039Z,98441.56
2022-10-19T20:49:38.580Z,98438.72
2022-10-19T20:52:05.060Z,98441.75
2022-10-19T20:54:31.697Z,98441.97
2022-10-19T20:56:58.469Z,98445.63
2022-10-19T20:59:25.760Z,98443.19
2022-10-19T21:01:54.189Z,98441.56
2022-10-19T21:04:21.323Z,98440.16
2022-10-19T21:06:49.973Z,98431.16
2022-10-19T21:09:21.751Z,98437.78
2022-10-19T21:11:49.918Z,98430.72
2022-10-19T21:14:25.456Z,98437.59
2022-10-19T21:16:55.941Z,98436.78
2022-10-19T21:19:24.194Z,98439.34
2022-10-19T21:21:57.320Z,98443.41
2022-10-19T21:24:30.537Z,98442.03
2022-10-19T21:26:56.999Z,98451.25
2022-10-19T21:29:23.520Z,98453.09
2022-10-19T21:31:52.080Z,98447.28
2022-10-19T21:34:25.056Z,98452.06
2022-10-19T21:36:52.397Z,98452.50
2022-10-19T21:39:19.517Z,98451.25
2022-10-19T21:41:46.868Z,98452.84
2022-10-19T21:44:15.302Z,98455.28
2022-10-19T21:46:42.258Z,98466.97
2022-10-19T21:49:11.160Z,98459.69
2022-10-19T21:51:42.342Z,98462.09
2022-10-19T21:54:13.175Z,98466.47
2022-10-19T21:56:40.092Z,98464.91
2022-10-19T21:59:06.744Z,98468.53
2022-10-19T22:01:37.239Z,98464.91
2022-10-19T22:04:10.868Z,98472.06
2022-10-19T22:06:37.417Z,98470.13
2022-10-19T22:09:06.372Z,98461.66
2022-10-19T22:11:33.609Z,98468.09
2022-10-19T22:14:02.878Z,98474.78
2022-10-19T22:16:30.035Z,98478.97
2022-10-19T22:18:57.894Z,98479.78
2022-10-19T22:21:27.458Z,98483.00
2022-10-19T22:23:56.573Z,98485.22
2022-10-19T22:26:25.728Z,98487.81
2022-10-19T22:28:52.698Z,98477.38
2022-10-19T22:31:19.581Z,98485.22
2022-10-19T22:33:46.218Z,98485.66
2022-10-19T22:36:13.139Z,98484.63
2022-10-19T22:38:40.584Z,98500.13
2022-10-19T22:41:07.258Z,98491.47
2022-10-19T22:43:33.761Z,98495.84
2022-10-19T22:46:00.318Z,98496.50
2022-10-19T22:48:26.885Z,98499.53
2022-10-19T22:50:54.064Z,98505.34
2022-10-19T22:53:23.599Z,98516.47
2022-10-19T22:55:50.550Z,98517.66
2022-10-19T22:58:17.776Z,98525.34
2022-10-19T23:00:44.346Z,98521.91
2022-10-19T23:03:11.018Z,98521.72
2022-10-19T23:05:37.499Z,98516.91
2022-10-19T23:08:04.155Z,98521.31
2022-10-19T23:10:30.818Z,98527.56
2022-10-19T23:12:57.309Z,98527.38
2022-10-19T23:15:23.813Z,98526.94
2022-10-19T23:17:50.513Z,98518.09
2022-10-19T23:20:17.225Z,98526.13
2022-10-19T23:22:43.771Z,98525.97
2022-10-19T23:25:10.380Z,98528.97
2022-10-19T23:27:37.192Z,98532.59
2022-10-19T23:30:04.627Z,98530.78
2022-10-19T23:32:31.308Z,98527.38
2022-10-19T23:34:58.147Z,98535.00
2022-10-19T23:37:24.647Z,98528.97
2022-10-19T23:39:51.284Z,98542.25
2022-10-19T23:42:17.808Z,98548.09
2022-10-19T23:44:44.390Z,98535.81
2022-10-19T23:47:10.978Z,98542.66
2022-10-19T23:49:37.464Z,98547.31
2022-10-19T23:52:04.123Z,98551.91
2022-10-19T23:54:30.762Z,98554.38
2022-10-19T23:56:57.349Z,98550.72
2022-10-19T23:59:23.950Z,98562.78
